Time;durP1;ratioP1;P1;durP2;ratioP2;P2;SDS_P1;SDS_P2;PMS_P1;PMS_P2;Temp;Humidity;BMP_temperature;BMP_pressure;BME280_temperature;BME280_humidity;BME280_pressure;Samples;Min_cycle;Max_cycle;Signal;HPM_P1;HPM_P2
2023/04/25 00:00:59;;;;;;;5.33;2.60;;;;;;;;;;5074848;28;20454;-68
2023/04/25 00:03:26;;;;;;;2.40;2.20;;;;;;;;;;5074717;28;20895;-65
2023/04/25 00:05:53;;;;;;;2.73;2.53;;;;;;;;;;5074883;28;20452;-65
2023/04/25 00:08:20;;;;;;;3.97;2.07;;;;;;;;;;5074828;28;20448;-66
2023/04/25 00:10:48;;;;;;;5.60;2.50;;;;;;;;;;5074735;28;20459;-66
2023/04/25 00:13:17;;;;;;;2.57;2.10;;;;;;;;;;5074496;28;20484;-66
2023/04/25 00:15:44;;;;;;;2.10;1.87;;;;;;;;;;5074427;28;20858;-65
2023/04/25 00:18:11;;;;;;;7.53;2.37;;;;;;;;;;5074351;28;20708;-66
2023/04/25 00:20:40;;;;;;;4.30;1.90;;;;;;;;;;5074510;28;20542;-66
2023/04/25 00:23:07;;;;;;;2.23;1.53;;;;;;;;;;5074475;28;20779;-66
2023/04/25 00:25:34;;;;;;;4.33;1.90;;;;;;;;;;5074563;28;20436;-66
2023/04/25 00:28:02;;;;;;;1.83;1.47;;;;;;;;;;5074246;28;20462;-66
2023/04/25 00:30:31;;;;;;;3.17;1.87;;;;;;;;;;5074132;28;20535;-66
2023/04/25 00:32:58;;;;;;;3.93;1.47;;;;;;;;;;5074314;28;20471;-66
2023/04/25 00:35:25;;;;;;;1.83;1.50;;;;;;;;;;5074302;28;20456;-66
2023/04/25 00:37:52;;;;;;;2.33;2.13;;;;;;;;;;5073846;28;20458;-66
2023/04/25 00:40:19;;;;;;;3.40;1.37;;;;;;;;;;5074136;28;20543;-66
2023/04/25 00:42:46;;;;;;;3.30;1.73;;;;;;;;;;5073971;28;20462;-66
2023/04/25 00:45:15;;;;;;;2.87;1.83;;;;;;;;;;5073771;28;20550;-66
2023/04/25 00:47:42;;;;;;;2.50;1.87;;;;;;;;;;5074064;28;20570;-66
2023/04/25 00:50:12;;;;;;;2.53;1.70;;;;;;;;;;5073926;28;20452;-66
2023/04/25 00:52:39;;;;;;;2.80;1.70;;;;;;;;;;5073807;28;20474;-66
2023/04/25 00:55:10;;;;;;;1.80;1.60;;;;;;;;;;5073664;28;20502;-66
2023/04/25 00:57:37;;;;;;;2.10;1.40;;;;;;;;;;5073583;28;20966;-66
2023/04/25 01:00:06;;;;;;;3.93;1.77;;;;;;;;;;5073590;28;20950;-66
2023/04/25 01:02:37;;;;;;;5.93;2.33;;;;;;;;;;5073653;28;20551;-66
2023/04/25 01:05:04;;;;;;;2.50;1.60;;;;;;;;;;5073635;28;20843;-66
2023/04/25 01:07:31;;;;;;;3.23;1.37;;;;;;;;;;5073458;28;20495;-66
2023/04/25 01:09:58;;;;;;;4.90;1.87;;;;;;;;;;5073322;28;20452;-66
2023/04/25 01:12:25;;;;;;;3.33;2.33;;;;;;;;;;5073493;28;20444;-66
2023/04/25 01:14:51;;;;;;;4.90;3.50;;;;;;;;;;5073448;28;20490;-66
2023/04/25 01:17:18;;;;;;;3.07;2.10;;;;;;;;;;5073340;28;20783;-66
2023/04/25 01:19:48;;;;;;;3.07;2.07;;;;;;;;;;5073236;28;20454;-66
2023/04/25 01:22:17;;;;;;;2.60;2.10;;;;;;;;;;5073430;28;20451;-66
2023/04/25 01:24:44;;;;;;;6.63;1.97;;;;;;;;;;5072967;28;20455;-66
2023/04/25 01:27:12;;;;;;;4.30;1.97;;;;;;;;;;5073183;28;20448;-66
2023/04/25 01:29:39;;;;;;;3.10;1.83;;;;;;;;;;5073159;28;20539;-66
2023/04/25 01:32:07;;;;;;;5.10;2.57;;;;;;;;;;5073072;28;20543;-66
2023/04/25 01:34:36;;;;;;;4.67;2.60;;;;;;;;;;5072869;28;20579;-66
2023/04/25 01:37:03;;;;;;;6.40;2.67;;;;;;;;;;5072866;28;20458;-66
2023/04/25 01:39:31;;;;;;;2.60;2.10;;;;;;;;;;5072802;28;20490;-66
2023/04/25 01:41:58;;;;;;;2.83;1.80;;;;;;;;;;5073004;28;20756;-66
2023/04/25 01:44:26;;;;;;;3.97;2.50;;;;;;;;;;5072969;28;20454;-66
2023/04/25 01:46:55;;;;;;;2.70;2.03;;;;;;;;;;5073069;28;20450;-66
2023/04/25 01:49:22;;;;;;;4.07;2.20;;;;;;;;;;5072173;28;21101;-66
2023/04/25 01:51:49;;;;;;;4.10;2.10;;;;;;;;;;5072713;28;20539;-66
2023/04/25 01:54:16;;;;;;;3.80;2.13;;;;;;;;;;5072456;28;21057;-66
2023/04/25 01:56:44;;;;;;;6.53;2.40;;;;;;;;;;5072648;28;20448;-66
2023/04/25 01:59:11;;;;;;;4.27;2.20;;;;;;;;;;5072715;28;20459;-66
2023/04/25 02:01:38;;;;;;;4.47;2.50;;;;;;;;;;5072590;28;20452;-66
2023/04/25 02:04:05;;;;;;;3.17;2.03;;;;;;;;;;5072512;28;20546;-66
2023/04/25 02:06:32;;;;;;;3.83;2.33;;;;;;;;;;5072419;28;20491;-66
2023/04/25 02:08:59;;;;;;;6.27;2.33;;;;;;;;;;5072726;28;20487;-66
2023/04/25 02:11:26;;;;;;;3.80;2.67;;;;;;;;;;5072575;28;20454;-66
2023/04/25 02:13:54;;;;;;;4.80;1.90;;;;;;;;;;5072299;28;20971;-66
2023/04/25 02:16:21;;;;;;;3.50;2.03;;;;;;;;;;5072485;28;20977;-66
2023/04/25 02:18:48;;;;;;;5.53;2.40;;;;;;;;;;5072444;28;20880;-66
2023/04/25 02:21:15;;;;;;;2.90;1.90;;;;;;;;;;5072332;28;20452;-66
2023/04/25 02:23:42;;;;;;;3.63;2.17;;;;;;;;;;5072615;28;20831;-66
2023/04/25 02:26:09;;;;;;;5.00;2.30;;;;;;;;;;5072530;28;20530;-66
2023/04/25 02:28:35;;;;;;;3.67;2.23;;;;;;;;;;5072503;28;20486;-66
2023/04/25 02:31:04;;;;;;;3.30;2.30;;;;;;;;;;5072248;28;20452;-66
2023/04/25 02:33:31;;;;;;;2.53;2.33;;;;;;;;;;5072065;28;20989;-66
2023/04/25 02:35:58;;;;;;;4.20;2.30;;;;;;;;;;5072458;28;20538;-66
2023/04/25 02:38:25;;;;;;;4.13;2.70;;;;;;;;;;5072323;28;20488;-66
2023/04/25 02:40:52;;;;;;;2.43;2.23;;;;;;;;;;5072363;28;20449;-66
2023/04/25 02:43:18;;;;;;;2.40;2.20;;;;;;;;;;5072390;28;20542;-66
2023/04/25 02:45:45;;;;;;;5.63;2.27;;;;;;;;;;5072288;28;20509;-67
2023/04/25 02:48:13;;;;;;;3.40;2.40;;;;;;;;;;5072163;28;20451;-66
2023/04/25 02:50:40;;;;;;;3.33;2.50;;;;;;;;;;5072348;28;20451;-66
2023/04/25 02:53:07;;;;;;;3.77;2.20;;;;;;;;;;5072082;28;20483;-66
2023/04/25 02:55:34;;;;;;;2.83;2.53;;;;;;;;;;5072034;28;20513;-65
2023/04/25 02:58:01;;;;;;;2.50;2.17;;;;;;;;;;5072083;28;20448;-66
2023/04/25 03:00:28;;;;;;;6.10;2.67;;;;;;;;;;5073644;28;20513;-65
2023/04/25 03:02:55;;;;;;;5.77;2.77;;;;;;;;;;5075920;28;20539;-66
2023/04/25 03:05:23;;;;;;;7.50;3.40;;;;;;;;;;5075823;28;20462;-66
2023/04/25 03:07:50;;;;;;;5.87;2.40;;;;;;;;;;5075860;28;20542;-66
2023/04/25 03:10:17;;;;;;;4.60;2.70;;;;;;;;;;5075679;28;20771;-67
2023/04/25 03:12:44;;;;;;;2.73;2.37;;;;;;;;;;5075662;28;20454;-66
2023/04/25 03:15:11;;;;;;;4.90;2.67;;;;;;;;;;5075354;28;21014;-66
2023/04/25 03:17:38;;;;;;;4.57;2.47;;;;;;;;;;5075635;28;20541;-66
2023/04/25 03:20:05;;;;;;;2.30;2.10;;;;;;;;;;5075578;28;20546;-66
2023/04/25 03:22:33;;;;;;;4.70;2.77;;;;;;;;;;5075480;28;20455;-66
2023/04/25 03:25:00;;;;;;;4.37;3.20;;;;;;;;;;5075363;28;20450;-66
2023/04/25 03:27:27;;;;;;;3.03;2.63;;;;;;;;;;5075348;28;20526;-66
2023/04/25 03:29:54;;;;;;;4.03;3.20;;;;;;;;;;5075149;28;20558;-66
2023/04/25 03:32:21;;;;;;;3.50;2.80;;;;;;;;;;5075444;28;20775;-66
2023/04/25 03:34:48;;;;;;;3.33;3.13;;;;;;;;;;5075227;28;20484;-66
2023/04/25 03:37:15;;;;;;;3.03;2.60;;;;;;;;;;5075181;28;20444;-66
2023/04/25 03:39:43;;;;;;;4.63;2.90;;;;;;;;;;5074975;28;20996;-66
2023/04/25 03:42:10;;;;;;;3.07;2.77;;;;;;;;;;5074975;28;20509;-66
2023/04/25 03:44:37;;;;;;;2.80;2.30;;;;;;;;;;5075260;28;20479;-66
2023/04/25 03:47:04;;;;;;;3.40;3.10;;;;;;;;;;5075016;28;20452;-66
2023/04/25 03:49:31;;;;;;;4.97;2.83;;;;;;;;;;5075794;28;20458;-68
2023/04/25 03:51:58;;;;;;;3.43;2.57;;;;;;;;;;5074909;28;20889;-65
2023/04/25 03:54:25;;;;;;;3.27;2.90;;;;;;;;;;5074571;28;20483;-65
2023/04/25 03:56:53;;;;;;;7.97;2.90;;;;;;;;;;5074769;28;20622;-65
2023/04/25 03:59:20;;;;;;;3.57;2.97;;;;;;;;;;5074858;28;20452;-65
2023/04/25 04:01:47;;;;;;;8.27;3.70;;;;;;;;;;5074785;28;20542;-65
2023/04/25 04:04:13;;;;;;;4.33;2.97;;;;;;;;;;5074802;28;20488;-65
2023/04/25 04:06:40;;;;;;;4.23;3.00;;;;;;;;;;5074694;28;20438;-65
2023/04/25 04:09:10;;;;;;;3.90;3.17;;;;;;;;;;5074478;28;21008;-65
2023/04/25 04:11:38;;;;;;;2.70;2.17;;;;;;;;;;5074204;28;20440;-65
2023/04/25 04:14:06;;;;;;;6.00;2.27;;;;;;;;;;5074638;28;20850;-65
2023/04/25 04:16:33;;;;;;;6.30;3.10;;;;;;;;;;5074585;28;20529;-65
2023/04/25 04:19:00;;;;;;;5.67;2.70;;;;;;;;;;5074775;28;20484;-65
2023/04/25 04:21:27;;;;;;;4.07;3.00;;;;;;;;;;5074335;28;20535;-65
2023/04/25 04:23:55;;;;;;;5.63;3.53;;;;;;;;;;5074428;28;20462;-65
2023/04/25 04:26:23;;;;;;;6.43;2.77;;;;;;;;;;5074220;28;20452;-65
2023/04/25 04:28:50;;;;;;;4.83;2.80;;;;;;;;;;5074278;28;20456;-64
2023/04/25 04:31:19;;;;;;;7.40;3.70;;;;;;;;;;5074110;28;20448;-65
2023/04/25 04:33:46;;;;;;;3.67;3.00;;;;;;;;;;5074038;28;20526;-65
2023/04/25 04:36:13;;;;;;;4.47;2.80;;;;;;;;;;5073922;28;20501;-65
2023/04/25 04:38:40;;;;;;;4.87;3.53;;;;;;;;;;5073904;28;20858;-65
2023/04/25 04:41:08;;;;;;;4.17;3.43;;;;;;;;;;5074065;28;20448;-65
2023/04/25 04:43:34;;;;;;;3.20;2.80;;;;;;;;;;5074014;28;20451;-65
2023/04/25 04:46:03;;;;;;;3.43;3.10;;;;;;;;;;5073826;28;20472;-65
2023/04/25 04:48:33;;;;;;;3.37;3.07;;;;;;;;;;5073782;28;20451;-65
2023/04/25 04:51:00;;;;;;;4.87;3.50;;;;;;;;;;5074053;28;20585;-64
2023/04/25 04:53:27;;;;;;;6.23;3.70;;;;;;;;;;5074039;28;20478;-64
2023/04/25 04:55:54;;;;;;;4.17;3.60;;;;;;;;;;5073974;28;20485;-65
2023/04/25 04:58:21;;;;;;;6.60;3.50;;;;;;;;;;5074245;28;20454;-65
2023/04/25 05:00:48;;;;;;;4.77;3.50;;;;;;;;;;5073934;28;20860;-64
2023/04/25 05:03:15;;;;;;;5.40;3.90;;;;;;;;;;5073677;28;20543;-65
2023/04/25 05:05:44;;;;;;;4.53;3.40;;;;;;;;;;5073699;28;20443;-65
2023/04/25 05:08:11;;;;;;;4.27;3.20;;;;;;;;;;5073836;28;20487;-65
2023/04/25 05:10:38;;;;;;;4.03;3.17;;;;;;;;;;5073469;28;20458;-65
2023/04/25 05:13:05;;;;;;;4.40;3.40;;;;;;;;;;5073598;28;20450;-65
2023/04/25 05:15:32;;;;;;;6.57;3.80;;;;;;;;;;5073515;28;20831;-65
2023/04/25 05:17:59;;;;;;;5.60;4.10;;;;;;;;;;5073440;28;20491;-65
2023/04/25 05:20:26;;;;;;;5.70;3.80;;;;;;;;;;5073673;28;20949;-65
2023/04/25 05:22:54;;;;;;;5.63;3.37;;;;;;;;;;5073073;28;20885;-65
2023/04/25 05:25:21;;;;;;;3.37;3.07;;;;;;;;;;5072941;28;20943;-65
2023/04/25 05:27:48;;;;;;;5.73;3.50;;;;;;;;;;5073208;28;20542;-64
2023/04/25 05:30:15;;;;;;;4.63;3.17;;;;;;;;;;5073130;28;20447;-65
2023/04/25 05:32:42;;;;;;;5.23;3.30;;;;;;;;;;5073095;28;20454;-64
2023/04/25 05:35:09;;;;;;;6.93;3.40;;;;;;;;;;5073204;28;20490;-65
2023/04/25 05:37:36;;;;;;;11.70;4.10;;;;;;;;;;5073282;28;20487;-65
2023/04/25 05:40:06;;;;;;;4.43;3.93;;;;;;;;;;5073153;28;20451;-65
2023/04/25 05:42:33;;;;;;;7.93;3.60;;;;;;;;;;5073160;28;20498;-65
2023/04/25 05:45:00;;;;;;;4.00;3.50;;;;;;;;;;5073057;28;20819;-65
2023/04/25 05:47:27;;;;;;;4.63;3.20;;;;;;;;;;5072814;28;20534;-65
2023/04/25 05:49:54;;;;;;;5.57;3.90;;;;;;;;;;5073176;28;20484;-65
2023/04/25 05:52:21;;;;;;;4.73;3.80;;;;;;;;;;5073029;28;20447;-65
2023/04/25 05:54:48;;;;;;;10.13;4.00;;;;;;;;;;5072597;28;20525;-65
2023/04/25 05:57:21;;;;;;;9.27;3.90;;;;;;;;;;5072923;28;20546;-65
2023/04/25 05:59:48;;;;;;;7.63;3.60;;;;;;;;;;5072690;28;20448;-65
2023/04/25 06:02:16;;;;;;;4.33;3.33;;;;;;;;;;5072990;28;20452;-65
2023/04/25 06:04:42;;;;;;;5.47;3.47;;;;;;;;;;5072642;28;20935;-65
2023/04/25 06:07:09;;;;;;;3.87;2.80;;;;;;;;;;5072749;28;20560;-65
2023/04/25 06:09:38;;;;;;;4.70;3.40;;;;;;;;;;5072727;28;20888;-65
2023/04/25 06:12:06;;;;;;;8.20;3.47;;;;;;;;;;5072606;28;20439;-65
2023/04/25 06:14:34;;;;;;;4.07;3.40;;;;;;;;;;5072544;28;20447;-65
2023/04/25 06:17:06;;;;;;;6.70;3.53;;;;;;;;;;5072910;28;20550;-65
2023/04/25 06:19:33;;;;;;;5.83;3.47;;;;;;;;;;5072625;28;20947;-64
2023/04/25 06:22:00;;;;;;;5.93;3.77;;;;;;;;;;5072640;28;20815;-65
2023/04/25 06:24:27;;;;;;;7.00;4.40;;;;;;;;;;5072749;28;20538;-65
2023/04/25 06:26:54;;;;;;;6.73;3.70;;;;;;;;;;5072476;28;20490;-65
2023/04/25 06:29:21;;;;;;;6.00;3.90;;;;;;;;;;5072686;28;20452;-65
2023/04/25 06:31:49;;;;;;;5.67;3.47;;;;;;;;;;5072467;28;20454;-65
2023/04/25 06:34:17;;;;;;;7.37;3.60;;;;;;;;;;5072553;28;20497;-65
2023/04/25 06:36:44;;;;;;;5.03;3.77;;;;;;;;;;5076400;28;20519;-65
2023/04/25 06:39:11;;;;;;;4.93;4.10;;;;;;;;;;5076372;28;20452;-65
2023/04/25 06:41:38;;;;;;;6.57;3.87;;;;;;;;;;5076233;28;20453;-65
2023/04/25 06:44:05;;;;;;;4.97;3.67;;;;;;;;;;5076512;28;20469;-65
2023/04/25 06:46:32;;;;;;;7.70;3.60;;;;;;;;;;5076439;28;20462;-65
2023/04/25 06:49:01;;;;;;;6.97;5.03;;;;;;;;;;5076235;28;20451;-65
2023/04/25 06:51:29;;;;;;;4.03;3.73;;;;;;;;;;5076338;28;20482;-65
2023/04/25 06:53:56;;;;;;;5.63;4.50;;;;;;;;;;5076060;28;20804;-65
2023/04/25 06:56:23;;;;;;;6.20;4.13;;;;;;;;;;5076225;28;20558;-65
2023/04/25 06:58:50;;;;;;;5.90;3.70;;;;;;;;;;5076169;28;20455;-65
2023/04/25 07:01:17;;;;;;;5.60;3.97;;;;;;;;;;5076061;28;20448;-65
2023/04/25 07:03:44;;;;;;;3.83;3.47;;;;;;;;;;5076003;28;20534;-64
2023/04/25 07:06:12;;;;;;;4.40;3.97;;;;;;;;;;5075922;28;20864;-65
2023/04/25 07:08:40;;;;;;;7.50;4.37;;;;;;;;;;5075780;28;20452;-65
2023/04/25 07:11:07;;;;;;;4.40;3.70;;;;;;;;;;5076071;28;20477;-65
2023/04/25 07:13:33;;;;;;;6.07;4.70;;;;;;;;;;5075855;28;20535;-65
2023/04/25 07:16:01;;;;;;;5.40;4.50;;;;;;;;;;5075824;28;20896;-65
2023/04/25 07:18:27;;;;;;;4.97;4.40;;;;;;;;;;5075851;28;20448;-65
2023/04/25 07:20:54;;;;;;;13.63;4.10;;;;;;;;;;5075682;28;20534;-65
2023/04/25 07:23:23;;;;;;;4.67;3.60;;;;;;;;;;5075421;28;20447;-65
2023/04/25 07:25:50;;;;;;;7.80;4.67;;;;;;;;;;5075793;28;20939;-65
2023/04/25 07:28:17;;;;;;;4.60;4.17;;;;;;;;;;5075589;28;20527;-64
2023/04/25 07:30:44;;;;;;;7.73;3.57;;;;;;;;;;5075579;28;20440;-65
2023/04/25 07:33:11;;;;;;;5.47;3.60;;;;;;;;;;5075398;28;20450;-65
2023/04/25 07:35:38;;;;;;;6.23;3.83;;;;;;;;;;5075255;28;20571;-65
2023/04/25 07:38:06;;;;;;;11.83;4.17;;;;;;;;;;5075498;28;20456;-65
2023/04/25 07:40:35;;;;;;;5.50;4.20;;;;;;;;;;5075480;28;20444;-65
2023/04/25 07:43:02;;;;;;;5.80;3.90;;;;;;;;;;5075361;28;20842;-65
2023/04/25 07:45:29;;;;;;;3.90;3.33;;;;;;;;;;5075256;28;20459;-65
2023/04/25 07:47:56;;;;;;;5.17;4.00;;;;;;;;;;5074088;28;20458;-65
2023/04/25 07:50:23;;;;;;;3.73;3.33;;;;;;;;;;5075389;28;20471;-65
2023/04/25 07:52:49;;;;;;;4.33;3.87;;;;;;;;;;5075072;28;20444;-65
2023/04/25 07:55:17;;;;;;;5.33;3.50;;;;;;;;;;5074993;28;20475;-65
2023/04/25 07:57:45;;;;;;;3.27;3.07;;;;;;;;;;5075031;28;20456;-66
2023/04/25 08:00:12;;;;;;;4.43;3.33;;;;;;;;;;5074965;28;20448;-65
2023/04/25 08:02:39;;;;;;;5.53;3.00;;;;;;;;;;5074832;28;20535;-65
2023/04/25 08:05:08;;;;;;;3.10;2.80;;;;;;;;;;5075076;28;20509;-65
2023/04/25 08:07:35;;;;;;;3.27;2.97;;;;;;;;;;5074538;28;21015;-64
2023/04/25 08:10:02;;;;;;;3.20;2.90;;;;;;;;;;5074939;28;20962;-59
2023/04/25 08:12:29;;;;;;;5.07;3.20;;;;;;;;;;5074637;28;20448;-59
2023/04/25 08:14:57;;;;;;;5.50;3.43;;;;;;;;;;5074628;28;20517;-60
2023/04/25 08:17:24;;;;;;;6.13;3.20;;;;;;;;;;5074853;28;20464;-59
2023/04/25 08:19:51;;;;;;;4.35;3.22;;;;;;;;;;5073664;28;20496;-60
2023/04/25 08:22:18;;;;;;;7.97;3.90;;;;;;;;;;5073522;28;20458;-60
2023/04/25 08:24:45;;;;;;;7.17;3.90;;;;;;;;;;5074482;28;20197;-63
2023/04/25 08:27:12;;;;;;;5.50;3.57;;;;;;;;;;5074537;28;20461;-60
2023/04/25 08:29:39;;;;;;;4.97;3.05;;;;;;;;;;5073469;28;21002;-61
2023/04/25 08:32:08;;;;;;;7.35;3.40;;;;;;;;;;5073403;28;20956;-60
2023/04/25 08:34:36;;;;;;;5.03;3.03;;;;;;;;;;5074197;28;20280;-62
2023/04/25 08:37:04;;;;;;;8.60;3.60;;;;;;;;;;5074213;28;20480;-59
2023/04/25 08:39:31;;;;;;;10.27;3.90;;;;;;;;;;5086238;28;20444;-60
2023/04/25 08:41:58;;;;;;;6.18;3.50;;;;;;;;;;5093627;28;20689;-62
2023/04/25 08:44:25;;;;;;;11.10;4.30;;;;;;;;;;5093410;28;20871;-61
2023/04/25 08:46:53;;;;;;;6.95;3.72;;;;;;;;;;5094276;28;20463;-63
2023/04/25 08:49:21;;;;;;;8.10;2.90;;;;;;;;;;5094267;28;20264;-60
2023/04/25 08:51:50;;;;;;;8.18;3.85;;;;;;;;;;5093558;28;20480;-60
2023/04/25 08:54:17;;;;;;;9.70;4.27;;;;;;;;;;5093367;28;20487;-61
2023/04/25 08:56:46;;;;;;;12.35;4.40;;;;;;;;;;5093196;28;20492;-60
2023/04/25 08:59:13;;;;;;;9.35;4.20;;;;;;;;;;5093438;28;20487;-62
2023/04/25 09:01:40;;;;;;;11.83;3.70;;;;;;;;;;5094071;28;20640;-59
2023/04/25 09:04:08;;;;;;;8.83;3.73;;;;;;;;;;5094004;28;20891;-61
2023/04/25 09:06:37;;;;;;;7.83;4.20;;;;;;;;;;5093911;28;20981;-60
2023/04/25 09:09:05;;;;;;;10.07;4.37;;;;;;;;;;5093837;28;20447;-61
2023/04/25 09:11:32;;;;;;;12.23;3.97;;;;;;;;;;5093792;28;20931;-61
2023/04/25 09:14:12;;;;;;;9.53;3.70;;;;;;;;;;5093929;28;20487;-62
2023/04/25 09:16:59;;;;;;;19.60;3.07;;;;;;;;;;5093677;28;20481;-61
2023/04/25 09:19:26;;;;;;;6.60;3.40;;;;;;;;;;5093228;28;21015;-62
2023/04/25 09:21:56;;;;;;;6.00;2.60;;;;;;;;;;5093050;28;20446;-60
2023/04/25 09:24:32;;;;;;;7.97;2.60;;;;;;;;;;5092858;28;20449;-60
2023/04/25 09:26:59;;;;;;;7.68;3.22;;;;;;;;;;5092293;28;20456;-60
2023/04/25 09:29:30;;;;;;;6.93;2.60;;;;;;;;;;5093331;28;20199;-59
2023/04/25 09:32:12;;;;;;;5.57;2.20;;;;;;;;;;5093341;28;20457;-62
2023/04/25 09:34:41;;;;;;;10.27;3.60;;;;;;;;;;5093133;28;20804;-59
2023/04/25 09:37:09;;;;;;;7.40;2.60;;;;;;;;;;5093245;28;20486;-60
2023/04/25 09:39:36;;;;;;;6.53;2.37;;;;;;;;;;5093222;28;20478;-59
2023/04/25 09:42:04;;;;;;;5.97;2.10;;;;;;;;;;5092904;28;20542;-60
2023/04/25 09:44:31;;;;;;;8.67;2.73;;;;;;;;;;5092999;28;20454;-60
2023/04/25 09:46:59;;;;;;;7.10;2.90;;;;;;;;;;5092740;28;21004;-59
2023/04/25 09:49:26;;;;;;;7.57;3.53;;;;;;;;;;5093225;28;21001;-61
2023/04/25 09:51:57;;;;;;;8.00;3.10;;;;;;;;;;5093209;28;20939;-63
2023/04/25 09:54:25;;;;;;;8.67;2.90;;;;;;;;;;5092936;28;20470;-62
2023/04/25 09:56:53;;;;;;;4.80;2.60;;;;;;;;;;5093052;28;20483;-61
2023/04/25 09:59:21;;;;;;;8.10;2.80;;;;;;;;;;5092954;28;20447;-62
2023/04/25 10:01:49;;;;;;;11.47;2.77;;;;;;;;;;5093159;28;20454;-61
2023/04/25 10:04:18;;;;;;;11.37;3.03;;;;;;;;;;5093133;28;20454;-62
2023/04/25 10:06:47;;;;;;;7.57;2.10;;;;;;;;;;5092909;28;21036;-62
2023/04/25 10:09:14;;;;;;;7.40;2.50;;;;;;;;;;5092593;28;20489;-63
2023/04/25 10:11:42;;;;;;;6.40;2.60;;;;;;;;;;5092912;28;20550;-60
2023/04/25 10:14:11;;;;;;;6.20;2.90;;;;;;;;;;5092808;28;20542;-60
2023/04/25 10:16:38;;;;;;;13.17;2.97;;;;;;;;;;5092949;28;20500;-60
2023/04/25 10:19:05;;;;;;;6.73;2.90;;;;;;;;;;5092929;28;20902;-61
2023/04/25 10:21:33;;;;;;;4.27;1.80;;;;;;;;;;5092676;28;20969;-63
2023/04/25 10:24:00;;;;;;;8.73;3.00;;;;;;;;;;5092774;28;20546;-63
2023/04/25 10:26:27;;;;;;;7.73;2.20;;;;;;;;;;5092749;28;20511;-61
2023/04/25 10:28:59;;;;;;;5.30;2.43;;;;;;;;;;5092813;28;20470;-61
2023/04/25 10:31:26;;;;;;;7.83;2.40;;;;;;;;;;5092849;28;20457;-63
2023/04/25 10:33:54;;;;;;;4.80;2.33;;;;;;;;;;5092907;28;20542;-61
2023/04/25 10:36:22;;;;;;;4.80;2.47;;;;;;;;;;5092512;28;20475;-63
2023/04/25 10:38:50;;;;;;;4.33;2.20;;;;;;;;;;5092654;28;20450;-60
2023/04/25 10:41:19;;;;;;;6.63;2.50;;;;;;;;;;5092413;28;20539;-61
2023/04/25 10:43:47;;;;;;;13.53;3.03;;;;;;;;;;5092376;28;20997;-62
2023/04/25 10:46:16;;;;;;;6.63;2.63;;;;;;;;;;5092508;28;20447;-62
2023/04/25 10:48:50;;;;;;;10.40;2.80;;;;;;;;;;5092579;28;20537;-62
2023/04/25 10:51:19;;;;;;;9.70;2.57;;;;;;;;;;5092319;28;20447;-61
2023/04/25 10:53:46;;;;;;;6.20;3.20;;;;;;;;;;5092224;28;20475;-61
2023/04/25 10:56:13;;;;;;;4.20;2.43;;;;;;;;;;5092651;28;20497;-59
2023/04/25 10:58:44;;;;;;;6.50;1.80;;;;;;;;;;5092405;28;20551;-60
2023/04/25 11:01:11;;;;;;;3.57;1.83;;;;;;;;;;5092377;28;20451;-60
2023/04/25 11:03:41;;;;;;;2.33;1.70;;;;;;;;;;5092504;28;20451;-60
2023/04/25 11:06:12;;;;;;;8.97;2.40;;;;;;;;;;5092304;28;20814;-60
2023/04/25 11:08:48;;;;;;;5.90;2.00;;;;;;;;;;5092551;28;20447;-63
2023/04/25 11:11:16;;;;;;;8.27;1.90;;;;;;;;;;5092774;28;20438;-61
2023/04/25 11:13:42;;;;;;;4.43;2.37;;;;;;;;;;5092240;28;20444;-62
2023/04/25 11:16:10;;;;;;;6.60;2.10;;;;;;;;;;5092475;28;20524;-62
2023/04/25 11:18:38;;;;;;;2.93;1.97;;;;;;;;;;5092224;28;20543;-60
2023/04/25 11:21:07;;;;;;;5.07;2.07;;;;;;;;;;5093463;28;20447;-60
2023/04/25 11:23:34;;;;;;;5.27;1.90;;;;;;;;;;5096017;28;20473;-64
2023/04/25 11:26:01;;;;;;;4.33;2.53;;;;;;;;;;5095880;28;20450;-61
2023/04/25 11:28:28;;;;;;;8.93;2.00;;;;;;;;;;5095777;28;20453;-62
2023/04/25 11:30:55;;;;;;;3.77;2.00;;;;;;;;;;5095893;28;20451;-61
2023/04/25 11:33:25;;;;;;;9.60;2.30;;;;;;;;;;5096066;28;20443;-61
2023/04/25 11:35:51;;;;;;;7.40;2.10;;;;;;;;;;5095790;28;20447;-61
2023/04/25 11:38:20;;;;;;;7.43;2.33;;;;;;;;;;5095626;28;20565;-61
2023/04/25 11:40:50;;;;;;;4.37;1.70;;;;;;;;;;5095664;28;20455;-60
2023/04/25 11:43:17;;;;;;;4.57;1.90;;;;;;;;;;5095569;28;20527;-60
2023/04/25 11:45:47;;;;;;;7.47;2.53;;;;;;;;;;5095696;28;20451;-60
2023/04/25 11:48:14;;;;;;;5.70;2.10;;;;;;;;;;5095507;28;20451;-62
2023/04/25 11:50:41;;;;;;;8.80;2.30;;;;;;;;;;5095482;28;20529;-59
2023/04/25 11:53:08;;;;;;;5.63;2.00;;;;;;;;;;5094929;28;21038;-60
2023/04/25 11:55:37;;;;;;;8.70;2.43;;;;;;;;;;5095482;28;20447;-62
2023/04/25 11:58:04;;;;;;;9.03;2.10;;;;;;;;;;5095004;28;20486;-62
2023/04/25 12:00:32;;;;;;;6.75;2.42;;;;;;;;;;5094937;28;20441;-60
2023/04/25 12:03:00;;;;;;;7.80;2.13;;;;;;;;;;5095638;28;20316;-60
2023/04/25 12:05:28;;;;;;;4.97;2.17;;;;;;;;;;5095068;28;20451;-60
2023/04/25 12:07:55;;;;;;;3.73;1.97;;;;;;;;;;5095107;28;20451;-59
2023/04/25 12:10:22;;;;;;;4.60;2.00;;;;;;;;;;5094129;28;20541;-61
2023/04/25 12:12:50;;;;;;;7.60;2.40;;;;;;;;;;5094870;28;20477;-61
2023/04/25 12:15:19;;;;;;;2.50;1.50;;;;;;;;;;5095136;28;20454;-64
2023/04/25 12:17:46;;;;;;;3.83;1.57;;;;;;;;;;5095049;28;20482;-65
2023/04/25 12:20:14;;;;;;;4.47;1.70;;;;;;;;;;5094997;28;20489;-63
2023/04/25 12:22:44;;;;;;;2.87;2.00;;;;;;;;;;5094804;28;20450;-61
2023/04/25 12:25:11;;;;;;;5.33;1.93;;;;;;;;;;5094686;28;20457;-61
2023/04/25 12:27:39;;;;;;;5.47;2.03;;;;;;;;;;5094839;28;20482;-60
2023/04/25 12:30:10;;;;;;;4.67;1.73;;;;;;;;;;5094751;28;20825;-60
2023/04/25 12:32:37;;;;;;;4.40;2.03;;;;;;;;;;5094092;28;20515;-59
2023/04/25 12:35:04;;;;;;;5.83;1.90;;;;;;;;;;5094631;28;20791;-60
2023/04/25 12:37:31;;;;;;;5.10;1.67;;;;;;;;;;5094368;28;20914;-60
2023/04/25 12:39:58;;;;;;;4.23;1.70;;;;;;;;;;5094658;28;20459;-62
2023/04/25 12:42:25;;;;;;;5.57;1.77;;;;;;;;;;5094352;28;20451;-62
2023/04/25 12:44:52;;;;;;;6.33;2.03;;;;;;;;;;5094659;28;20545;-61
2023/04/25 12:47:20;;;;;;;2.53;1.90;;;;;;;;;;5094161;28;20946;-60
2023/04/25 12:49:47;;;;;;;6.13;2.17;;;;;;;;;;5094002;28;20533;-59
2023/04/25 12:52:15;;;;;;;7.20;1.97;;;;;;;;;;5093998;28;20479;-62
2023/04/25 12:54:42;;;;;;;4.20;1.90;;;;;;;;;;5093996;28;20558;-59
2023/04/25 12:57:09;;;;;;;4.23;2.43;;;;;;;;;;5094039;28;20997;-62
2023/04/25 12:59:36;;;;;;;4.87;1.87;;;;;;;;;;5094206;28;20458;-61
2023/04/25 13:02:03;;;;;;;4.33;1.70;;;;;;;;;;5094042;28;20534;-62
2023/04/25 13:04:31;;;;;;;5.10;2.27;;;;;;;;;;5094036;28;20863;-63
2023/04/25 13:06:58;;;;;;;2.67;1.60;;;;;;;;;;5093834;28;20805;-63
2023/04/25 13:09:25;;;;;;;4.70;1.60;;;;;;;;;;5094173;28;20526;-63
2023/04/25 13:11:51;;;;;;;4.17;1.83;;;;;;;;;;5093984;28;20458;-63
2023/04/25 13:14:18;;;;;;;5.27;1.87;;;;;;;;;;5094213;28;20443;-63
2023/04/25 13:16:45;;;;;;;4.10;1.40;;;;;;;;;;5093824;28;20802;-63
2023/04/25 13:19:12;;;;;;;5.70;1.50;;;;;;;;;;5093733;28;20857;-63
2023/04/25 13:21:40;;;;;;;2.93;1.43;;;;;;;;;;5094087;28;20447;-63
2023/04/25 13:24:08;;;;;;;4.17;1.70;;;;;;;;;;5094090;28;20447;-62
2023/04/25 13:26:35;;;;;;;7.77;1.60;;;;;;;;;;5093754;28;20455;-62
2023/04/25 13:29:03;;;;;;;3.30;1.90;;;;;;;;;;5093906;28;20459;-63
2023/04/25 13:31:30;;;;;;;3.73;1.80;;;;;;;;;;5093846;28;20766;-63
2023/04/25 13:33:57;;;;;;;2.93;1.47;;;;;;;;;;5093338;28;20545;-63
2023/04/25 13:36:24;;;;;;;5.60;2.30;;;;;;;;;;5093615;28;20534;-63
2023/04/25 13:38:52;;;;;;;2.30;1.47;;;;;;;;;;5093836;28;20837;-63
2023/04/25 13:41:19;;;;;;;1.47;1.37;;;;;;;;;;5093671;28;20505;-63
2023/04/25 13:43:47;;;;;;;3.73;1.60;;;;;;;;;;5093055;28;20447;-63
2023/04/25 13:46:16;;;;;;;1.63;1.47;;;;;;;;;;5092805;28;20818;-63
2023/04/25 13:48:46;;;;;;;4.27;1.47;;;;;;;;;;5093472;28;20458;-63
2023/04/25 13:51:13;;;;;;;3.27;1.10;;;;;;;;;;5093479;28;20497;-63
2023/04/25 13:53:40;;;;;;;3.13;1.27;;;;;;;;;;5093386;28;20479;-63
2023/04/25 13:56:08;;;;;;;2.60;1.50;;;;;;;;;;5093149;28;20889;-63
2023/04/25 13:58:35;;;;;;;3.93;1.20;;;;;;;;;;5093139;28;20561;-63
2023/04/25 14:01:03;;;;;;;3.60;1.37;;;;;;;;;;5092949;28;20454;-64
2023/04/25 14:03:30;;;;;;;2.60;1.63;;;;;;;;;;5092729;28;20453;-63
2023/04/25 14:05:57;;;;;;;4.80;1.63;;;;;;;;;;5093087;28;20802;-64
2023/04/25 14:08:23;;;;;;;1.47;1.20;;;;;;;;;;5092984;28;20812;-63
2023/04/25 14:10:50;;;;;;;3.43;1.43;;;;;;;;;;5093266;28;20542;-64
2023/04/25 14:13:19;;;;;;;2.83;2.13;;;;;;;;;;5093267;28;20447;-63
2023/04/25 14:15:45;;;;;;;3.30;1.63;;;;;;;;;;5092993;28;20430;-63
2023/04/25 14:18:12;;;;;;;2.50;1.10;;;;;;;;;;5092950;28;20505;-63
2023/04/25 14:20:39;;;;;;;2.83;1.50;;;;;;;;;;5093168;28;20458;-63
2023/04/25 14:23:06;;;;;;;2.13;1.27;;;;;;;;;;5093012;28;20454;-63
2023/04/25 14:25:33;;;;;;;7.90;1.40;;;;;;;;;;5092954;28;20857;-64
2023/04/25 14:28:00;;;;;;;4.90;1.57;;;;;;;;;;5092691;28;20787;-63
2023/04/25 14:30:29;;;;;;;3.33;1.47;;;;;;;;;;5093067;28;20447;-63
2023/04/25 14:32:56;;;;;;;6.40;1.70;;;;;;;;;;5093267;28;20541;-63
2023/04/25 14:35:22;;;;;;;3.00;1.70;;;;;;;;;;5092832;28;20479;-63
2023/04/25 14:37:49;;;;;;;3.03;1.50;;;;;;;;;;5092793;28;20565;-63
2023/04/25 14:40:17;;;;;;;4.20;1.57;;;;;;;;;;5092920;28;20542;-63
2023/04/25 14:42:44;;;;;;;5.97;1.83;;;;;;;;;;5092605;28;20813;-63
2023/04/25 14:45:11;;;;;;;4.80;1.50;;;;;;;;;;5092839;28;20450;-63